sensor_id;sensor_type;location;lat;lon;timestamp;temperature;humidity
13375;DHT22;6756;51.354;15.754;2023-02-05T00:02:59;-4.20;1.00
13375;DHT22;6756;51.354;15.754;2023-02-05T00:06:59;-4.30;1.00
13375;DHT22;6756;51.354;15.754;2023-02-05T00:11:00;-4.30;1.00
13375;DHT22;6756;51.354;15.754;2023-02-05T00:15:09;-4.40;71.30
13375;DHT22;6756;51.354;15.754;2023-02-05T00:19:09;-4.50;99.90
13375;DHT22;6756;51.354;15.754;2023-02-05T00:23:10;-4.50;99.90
13375;DHT22;6756;51.354;15.754;2023-02-05T00:27:11;-4.50;1.00
13375;DHT22;6756;51.354;15.754;2023-02-05T00:31:18;-4.50;31.20
13375;DHT22;6756;51.354;15.754;2023-02-05T00:35:20;-4.40;10.30
13375;DHT22;6756;51.354;15.754;2023-02-05T00:39:20;-4.30;1.00
13375;DHT22;6756;51.354;15.754;2023-02-05T00:43:21;-4.20;10.00
13375;DHT22;6756;51.354;15.754;2023-02-05T00:47:22;-4.20;1.00
13375;DHT22;6756;51.354;15.754;2023-02-05T00:51:23;-4.10;1.00
13375;DHT22;6756;51.354;15.754;2023-02-05T00:55:25;-4.10;1.00
13375;DHT22;6756;51.354;15.754;2023-02-05T00:59:26;-4.00;1.00
13375;DHT22;6756;51.354;15.754;2023-02-05T01:03:27;-4.00;99.90
13375;DHT22;6756;51.354;15.754;2023-02-05T01:07:27;-4.00;99.90
13375;DHT22;6756;51.354;15.754;2023-02-05T01:11:28;-4.00;99.90
13375;DHT22;6756;51.354;15.754;2023-02-05T01:15:30;-3.90;99.90
13375;DHT22;6756;51.354;15.754;2023-02-05T01:19:33;-3.90;99.90
13375;DHT22;6756;51.354;15.754;2023-02-05T01:23:34;-3.90;99.90
13375;DHT22;6756;51.354;15.754;2023-02-05T01:27:35;-3.90;76.40
13375;DHT22;6756;51.354;15.754;2023-02-05T01:31:35;-3.90;99.90
13375;DHT22;6756;51.354;15.754;2023-02-05T01:35:36;-3.90;99.90
13375;DHT22;6756;51.354;15.754;2023-02-05T01:39:37;-3.90;99.90
13375;DHT22;6756;51.354;15.754;2023-02-05T01:43:38;-4.00;99.90
13375;DHT22;6756;51.354;15.754;2023-02-05T01:47:38;-4.10;1.00
13375;DHT22;6756;51.354;15.754;2023-02-05T01:51:39;-4.20;1.00
13375;DHT22;6756;51.354;15.754;2023-02-05T01:55:44;-4.20;99.90
13375;DHT22;6756;51.354;15.754;2023-02-05T01:59:48;-4.30;99.90
13375;DHT22;6756;51.354;15.754;2023-02-05T02:03:50;-4.40;1.00
13375;DHT22;6756;51.354;15.754;2023-02-05T02:07:53;-4.50;25.80
13375;DHT22;6756;51.354;15.754;2023-02-05T02:11:54;-4.50;1.00
13375;DHT22;6756;51.354;15.754;2023-02-05T02:15:57;-4.50;99.90
13375;DHT22;6756;51.354;15.754;2023-02-05T02:20:01;-4.60;1.00
13375;DHT22;6756;51.354;15.754;2023-02-05T02:24:34;-4.60;99.90
13375;DHT22;6756;51.354;15.754;2023-02-05T02:28:49;-4.80;99.90
13375;DHT22;6756;51.354;15.754;2023-02-05T02:37:24;-5.30;1.00
13375;DHT22;6756;51.354;15.754;2023-02-05T02:42:01;-5.40;99.90
13375;DHT22;6756;51.354;15.754;2023-02-05T02:46:08;-5.60;99.90
13375;DHT22;6756;51.354;15.754;2023-02-05T02:50:29;-5.80;1.00
13375;DHT22;6756;51.354;15.754;2023-02-05T02:54:33;-5.90;99.90
13375;DHT22;6756;51.354;15.754;2023-02-05T02:58:41;-6.10;1.00
13375;DHT22;6756;51.354;15.754;2023-02-05T03:02:45;-6.10;99.90
13375;DHT22;6756;51.354;15.754;2023-02-05T03:06:49;-6.20;99.90
13375;DHT22;6756;51.354;15.754;2023-02-05T03:11:00;-6.30;1.00
13375;DHT22;6756;51.354;15.754;2023-02-05T03:15:02;-6.40;29.70
13375;DHT22;6756;51.354;15.754;2023-02-05T03:19:03;-6.50;99.90
13375;DHT22;6756;51.354;15.754;2023-02-05T03:23:06;-6.40;1.00
13375;DHT22;6756;51.354;15.754;2023-02-05T03:27:06;-6.40;99.90
13375;DHT22;6756;51.354;15.754;2023-02-05T03:31:19;-6.40;99.90
13375;DHT22;6756;51.354;15.754;2023-02-05T03:39:31;-6.60;99.90
13375;DHT22;6756;51.354;15.754;2023-02-05T03:43:55;-6.70;13.70
13375;DHT22;6756;51.354;15.754;2023-02-05T03:48:27;-6.80;1.00
13375;DHT22;6756;51.354;15.754;2023-02-05T03:52:36;-6.80;1.00
13375;DHT22;6756;51.354;15.754;2023-02-05T03:57:02;-6.90;1.00
13375;DHT22;6756;51.354;15.754;2023-02-05T04:01:05;-6.90;1.00
13375;DHT22;6756;51.354;15.754;2023-02-05T04:05:07;-7.00;1.00
13375;DHT22;6756;51.354;15.754;2023-02-05T04:09:09;-7.00;1.00
13375;DHT22;6756;51.354;15.754;2023-02-05T04:13:10;-7.10;1.00
13375;DHT22;6756;51.354;15.754;2023-02-05T04:17:11;-7.10;88.50
13375;DHT22;6756;51.354;15.754;2023-02-05T04:21:12;-7.10;99.90
13375;DHT22;6756;51.354;15.754;2023-02-05T04:25:13;-7.10;99.90
13375;DHT22;6756;51.354;15.754;2023-02-05T04:29:14;-7.10;99.90
13375;DHT22;6756;51.354;15.754;2023-02-05T04:33:15;-7.10;99.90
13375;DHT22;6756;51.354;15.754;2023-02-05T04:37:16;-7.10;99.90
13375;DHT22;6756;51.354;15.754;2023-02-05T04:41:16;-7.10;99.90
13375;DHT22;6756;51.354;15.754;2023-02-05T04:45:17;-7.20;99.90
13375;DHT22;6756;51.354;15.754;2023-02-05T04:49:19;-7.10;99.90
13375;DHT22;6756;51.354;15.754;2023-02-05T04:53:19;-7.20;1.00
13375;DHT22;6756;51.354;15.754;2023-02-05T04:57:20;-7.20;1.00
13375;DHT22;6756;51.354;15.754;2023-02-05T05:01:22;-7.20;1.00
13375;DHT22;6756;51.354;15.754;2023-02-05T05:05:23;-7.20;1.00
13375;DHT22;6756;51.354;15.754;2023-02-05T05:09:24;-7.30;1.00
13375;DHT22;6756;51.354;15.754;2023-02-05T05:13:25;-7.30;1.00
13375;DHT22;6756;51.354;15.754;2023-02-05T05:17:26;-7.30;4.10
13375;DHT22;6756;51.354;15.754;2023-02-05T05:21:27;-7.30;47.00
13375;DHT22;6756;51.354;15.754;2023-02-05T05:25:28;-7.30;91.30
13375;DHT22;6756;51.354;15.754;2023-02-05T05:29:28;-7.30;99.90
13375;DHT22;6756;51.354;15.754;2023-02-05T05:33:29;-7.40;99.90
13375;DHT22;6756;51.354;15.754;2023-02-05T05:37:30;-7.40;99.90
13375;DHT22;6756;51.354;15.754;2023-02-05T05:41:31;-7.40;99.90
13375;DHT22;6756;51.354;15.754;2023-02-05T05:45:51;-7.50;99.90
13375;DHT22;6756;51.354;15.754;2023-02-05T05:49:52;-7.50;99.90
13375;DHT22;6756;51.354;15.754;2023-02-05T05:53:53;-7.50;99.90
13375;DHT22;6756;51.354;15.754;2023-02-05T05:57:54;-7.50;99.40
13375;DHT22;6756;51.354;15.754;2023-02-05T06:01:55;-7.50;98.80
13375;DHT22;6756;51.354;15.754;2023-02-05T06:06:03;-7.50;91.30
13375;DHT22;6756;51.354;15.754;2023-02-05T06:10:04;-7.50;85.90
13375;DHT22;6756;51.354;15.754;2023-02-05T06:14:05;-7.50;82.30
13375;DHT22;6756;51.354;15.754;2023-02-05T06:18:06;-7.40;93.10
13375;DHT22;6756;51.354;15.754;2023-02-05T06:22:06;-7.30;99.90
13375;DHT22;6756;51.354;15.754;2023-02-05T06:26:07;-7.30;99.90
13375;DHT22;6756;51.354;15.754;2023-02-05T06:30:09;-7.30;99.90
13375;DHT22;6756;51.354;15.754;2023-02-05T06:34:10;-7.30;99.90
13375;DHT22;6756;51.354;15.754;2023-02-05T06:38:11;-7.20;99.90
13375;DHT22;6756;51.354;15.754;2023-02-05T06:42:12;-7.20;99.90
13375;DHT22;6756;51.354;15.754;2023-02-05T06:46:12;-7.10;99.90
13375;DHT22;6756;51.354;15.754;2023-02-05T06:50:13;-7.00;99.90
13375;DHT22;6756;51.354;15.754;2023-02-05T06:54:14;-6.90;99.90
13375;DHT22;6756;51.354;15.754;2023-02-05T06:58:15;-6.80;99.90
13375;DHT22;6756;51.354;15.754;2023-02-05T07:02:16;-6.80;99.90
13375;DHT22;6756;51.354;15.754;2023-02-05T07:06:17;-6.70;99.90
13375;DHT22;6756;51.354;15.754;2023-02-05T07:10:18;-6.70;99.90
13375;DHT22;6756;51.354;15.754;2023-02-05T07:14:19;-6.60;99.90
13375;DHT22;6756;51.354;15.754;2023-02-05T07:18:20;-6.50;99.90
13375;DHT22;6756;51.354;15.754;2023-02-05T07:22:21;-6.40;99.90
13375;DHT22;6756;51.354;15.754;2023-02-05T07:26:22;-6.20;99.90
13375;DHT22;6756;51.354;15.754;2023-02-05T07:30:23;-6.10;99.90
13375;DHT22;6756;51.354;15.754;2023-02-05T07:34:24;-5.90;99.90
13375;DHT22;6756;51.354;15.754;2023-02-05T07:38:25;-5.80;99.90
13375;DHT22;6756;51.354;15.754;2023-02-05T07:42:25;-5.70;99.90
13375;DHT22;6756;51.354;15.754;2023-02-05T07:46:26;-5.50;99.90
13375;DHT22;6756;51.354;15.754;2023-02-05T07:50:27;-5.50;99.90
13375;DHT22;6756;51.354;15.754;2023-02-05T07:54:28;-5.30;99.90
13375;DHT22;6756;51.354;15.754;2023-02-05T07:58:29;-5.20;99.90
13375;DHT22;6756;51.354;15.754;2023-02-05T08:02:30;-5.00;99.90
13375;DHT22;6756;51.354;15.754;2023-02-05T08:06:32;-4.90;99.90
13375;DHT22;6756;51.354;15.754;2023-02-05T08:10:33;-4.80;18.00
13375;DHT22;6756;51.354;15.754;2023-02-05T08:14:34;-4.70;99.90
13375;DHT22;6756;51.354;15.754;2023-02-05T08:18:36;-4.60;1.00
13375;DHT22;6756;51.354;15.754;2023-02-05T08:22:38;-4.40;99.90
13375;DHT22;6756;51.354;15.754;2023-02-05T08:26:39;-4.30;99.90
13375;DHT22;6756;51.354;15.754;2023-02-05T08:30:40;-4.20;99.90
13375;DHT22;6756;51.354;15.754;2023-02-05T08:34:41;-4.00;99.90
13375;DHT22;6756;51.354;15.754;2023-02-05T08:38:42;-3.90;1.00
13375;DHT22;6756;51.354;15.754;2023-02-05T08:42:43;-3.60;60.50
13375;DHT22;6756;51.354;15.754;2023-02-05T08:46:43;-3.40;1.00
13375;DHT22;6756;51.354;15.754;2023-02-05T08:50:45;-3.20;99.90
13375;DHT22;6756;51.354;15.754;2023-02-05T08:54:46;-3.00;1.00
13375;DHT22;6756;51.354;15.754;2023-02-05T08:58:47;-2.80;99.90
13375;DHT22;6756;51.354;15.754;2023-02-05T09:02:48;-2.50;58.60
13375;DHT22;6756;51.354;15.754;2023-02-05T09:06:49;-2.30;1.00
13375;DHT22;6756;51.354;15.754;2023-02-05T09:10:50;-1.90;1.00
13375;DHT22;6756;51.354;15.754;2023-02-05T09:14:51;-1.40;1.00
13375;DHT22;6756;51.354;15.754;2023-02-05T09:18:58;-1.30;19.80
13375;DHT22;6756;51.354;15.754;2023-02-05T09:22:59;-1.20;1.00
13375;DHT22;6756;51.354;15.754;2023-02-05T09:27:01;-0.80;1.00
13375;DHT22;6756;51.354;15.754;2023-02-05T09:31:11;-0.40;1.00
13375;DHT22;6756;51.354;15.754;2023-02-05T09:35:12;0.00;1.00
13375;DHT22;6756;51.354;15.754;2023-02-05T09:39:13;0.40;99.90
13375;DHT22;6756;51.354;15.754;2023-02-05T09:47:31;0.60;99.90
13375;DHT22;6756;51.354;15.754;2023-02-05T09:51:39;0.50;99.90
13375;DHT22;6756;51.354;15.754;2023-02-05T09:55:43;0.50;99.90
13375;DHT22;6756;51.354;15.754;2023-02-05T09:59:46;0.60;99.90
13375;DHT22;6756;51.354;15.754;2023-02-05T10:03:57;0.90;99.90
13375;DHT22;6756;51.354;15.754;2023-02-05T10:16:33;1.20;70.20
13375;DHT22;6756;51.354;15.754;2023-02-05T10:35:29;1.30;9.30
13375;DHT22;6756;51.354;15.754;2023-02-05T10:39:25;1.20;1.00
13375;DHT22;6756;51.354;15.754;2023-02-05T10:48:35;1.10;1.00
13375;DHT22;6756;51.354;15.754;2023-02-05T10:52:37;1.20;1.00
13375;DHT22;6756;51.354;15.754;2023-02-05T10:56:38;1.20;1.00
13375;DHT22;6756;51.354;15.754;2023-02-05T11:00:40;1.40;1.00
13375;DHT22;6756;51.354;15.754;2023-02-05T11:04:48;1.40;1.00
13375;DHT22;6756;51.354;15.754;2023-02-05T11:08:50;1.40;1.00
13375;DHT22;6756;51.354;15.754;2023-02-05T11:12:56;1.40;1.00
13375;DHT22;6756;51.354;15.754;2023-02-05T11:17:06;1.40;1.00
13375;DHT22;6756;51.354;15.754;2023-02-05T11:21:08;1.50;1.00
13375;DHT22;6756;51.354;15.754;2023-02-05T11:25:13;1.60;1.00
13375;DHT22;6756;51.354;15.754;2023-02-05T11:29:19;1.70;1.00
13375;DHT22;6756;51.354;15.754;2023-02-05T11:37:24;1.80;1.00
13375;DHT22;6756;51.354;15.754;2023-02-05T11:41:33;2.00;1.00
13375;DHT22;6756;51.354;15.754;2023-02-05T11:45:55;2.10;1.00
13375;DHT22;6756;51.354;15.754;2023-02-05T11:49:57;2.10;1.00
13375;DHT22;6756;51.354;15.754;2023-02-05T11:54:00;2.30;1.00
13375;DHT22;6756;51.354;15.754;2023-02-05T11:58:05;2.60;1.00
13375;DHT22;6756;51.354;15.754;2023-02-05T12:06:55;2.60;1.00
13375;DHT22;6756;51.354;15.754;2023-02-05T12:11:06;2.60;1.00
13375;DHT22;6756;51.354;15.754;2023-02-05T12:15:31;2.40;1.00
13375;DHT22;6756;51.354;15.754;2023-02-05T12:28:33;1.90;1.00
13375;DHT22;6756;51.354;15.754;2023-02-05T12:37:21;1.90;1.00
13375;DHT22;6756;51.354;15.754;2023-02-05T12:54:28;2.00;1.00
13375;DHT22;6756;51.354;15.754;2023-02-05T12:58:42;1.80;1.00
13375;DHT22;6756;51.354;15.754;2023-02-05T13:07:38;1.60;1.00
13375;DHT22;6756;51.354;15.754;2023-02-05T13:11:47;1.60;1.00
13375;DHT22;6756;51.354;15.754;2023-02-05T13:16:01;1.50;1.00
13375;DHT22;6756;51.354;15.754;2023-02-05T13:20:06;1.40;1.00
13375;DHT22;6756;51.354;15.754;2023-02-05T13:24:25;1.20;1.00
13375;DHT22;6756;51.354;15.754;2023-02-05T13:29:03;1.10;1.00
13375;DHT22;6756;51.354;15.754;2023-02-05T13:33:07;1.10;1.00
13375;DHT22;6756;51.354;15.754;2023-02-05T13:58:51;0.60;1.00
13375;DHT22;6756;51.354;15.754;2023-02-05T14:02:59;0.50;1.00
13375;DHT22;6756;51.354;15.754;2023-02-05T14:07:07;0.50;1.00
13375;DHT22;6756;51.354;15.754;2023-02-05T14:11:13;0.50;1.00
13375;DHT22;6756;51.354;15.754;2023-02-05T14:19:24;0.40;1.00
13375;DHT22;6756;51.354;15.754;2023-02-05T14:27:52;0.10;1.00
13375;DHT22;6756;51.354;15.754;2023-02-05T14:31:55;0.10;1.00
13375;DHT22;6756;51.354;15.754;2023-02-05T14:36:43;0.10;4.00
13375;DHT22;6756;51.354;15.754;2023-02-05T14:40:32;0.00;5.20
13375;DHT22;6756;51.354;15.754;2023-02-05T14:44:38;0.00;1.00
13375;DHT22;6756;51.354;15.754;2023-02-05T14:48:45;0.00;1.00
13375;DHT22;6756;51.354;15.754;2023-02-05T14:52:51;0.00;1.00
13375;DHT22;6756;51.354;15.754;2023-02-05T15:09:59;-0.20;19.40
13375;DHT22;6756;51.354;15.754;2023-02-05T15:18:32;-0.40;35.20
13375;DHT22;6756;51.354;15.754;2023-02-05T15:22:36;-0.50;50.30
13375;DHT22;6756;51.354;15.754;2023-02-05T15:26:40;-0.60;56.20
13375;DHT22;6756;51.354;15.754;2023-02-05T15:31:00;-0.70;54.80
13375;DHT22;6756;51.354;15.754;2023-02-05T15:35:08;-0.80;75.30
13375;DHT22;6756;51.354;15.754;2023-02-05T15:43:56;-1.00;99.90
13375;DHT22;6756;51.354;15.754;2023-02-05T15:48:09;-1.10;99.90
13375;DHT22;6756;51.354;15.754;2023-02-05T15:52:20;-1.30;99.90
13375;DHT22;6756;51.354;15.754;2023-02-05T15:56:28;-1.50;99.90
13375;DHT22;6756;51.354;15.754;2023-02-05T16:00:33;-1.70;99.90
13375;DHT22;6756;51.354;15.754;2023-02-05T16:04:38;-1.90;99.90
13375;DHT22;6756;51.354;15.754;2023-02-05T16:08:46;-2.00;99.90
13375;DHT22;6756;51.354;15.754;2023-02-05T16:21:21;-2.20;99.90
13375;DHT22;6756;51.354;15.754;2023-02-05T16:25:46;-2.20;99.90
13375;DHT22;6756;51.354;15.754;2023-02-05T16:29:53;-2.20;99.90
13375;DHT22;6756;51.354;15.754;2023-02-05T16:34:01;-2.30;99.90
13375;DHT22;6756;51.354;15.754;2023-02-05T16:38:03;-2.40;99.90
13375;DHT22;6756;51.354;15.754;2023-02-05T16:46:28;-2.50;99.90
13375;DHT22;6756;51.354;15.754;2023-02-05T16:50:35;-2.60;99.90
13375;DHT22;6756;51.354;15.754;2023-02-05T16:54:36;-2.70;99.90
13375;DHT22;6756;51.354;15.754;2023-02-05T16:58:47;-2.90;99.90
13375;DHT22;6756;51.354;15.754;2023-02-05T17:02:53;-3.00;99.90
13375;DHT22;6756;51.354;15.754;2023-02-05T17:06:56;-3.10;99.90
13375;DHT22;6756;51.354;15.754;2023-02-05T17:11:02;-3.20;99.90
13375;DHT22;6756;51.354;15.754;2023-02-05T17:19:31;-3.40;1.00
13375;DHT22;6756;51.354;15.754;2023-02-05T17:23:35;-3.40;1.00
13375;DHT22;6756;51.354;15.754;2023-02-05T17:27:37;-3.50;1.00
13375;DHT22;6756;51.354;15.754;2023-02-05T17:31:39;-3.60;1.00
13375;DHT22;6756;51.354;15.754;2023-02-05T17:35:41;-3.70;1.00
13375;DHT22;6756;51.354;15.754;2023-02-05T17:39:43;-3.80;1.00
13375;DHT22;6756;51.354;15.754;2023-02-05T17:43:46;-3.90;1.00
13375;DHT22;6756;51.354;15.754;2023-02-05T17:47:47;-3.90;1.00
13375;DHT22;6756;51.354;15.754;2023-02-05T17:51:48;-3.90;1.00
13375;DHT22;6756;51.354;15.754;2023-02-05T17:55:49;-3.90;1.00
13375;DHT22;6756;51.354;15.754;2023-02-05T17:59:51;-3.90;25.00
13375;DHT22;6756;51.354;15.754;2023-02-05T18:03:54;-4.00;52.10
13375;DHT22;6756;51.354;15.754;2023-02-05T18:07:56;-4.10;94.60
13375;DHT22;6756;51.354;15.754;2023-02-05T18:11:58;-4.10;99.90
13375;DHT22;6756;51.354;15.754;2023-02-05T18:15:59;-4.10;99.90
13375;DHT22;6756;51.354;15.754;2023-02-05T18:20:04;-4.20;99.90
13375;DHT22;6756;51.354;15.754;2023-02-05T18:24:05;-4.20;99.90
13375;DHT22;6756;51.354;15.754;2023-02-05T18:28:06;-4.30;99.90
13375;DHT22;6756;51.354;15.754;2023-02-05T18:32:07;-4.40;99.90
13375;DHT22;6756;51.354;15.754;2023-02-05T18:36:11;-4.50;99.90
13375;DHT22;6756;51.354;15.754;2023-02-05T18:40:12;-4.60;99.90
13375;DHT22;6756;51.354;15.754;2023-02-05T18:44:14;-4.60;1.00
13375;DHT22;6756;51.354;15.754;2023-02-05T18:48:17;-4.70;1.00
13375;DHT22;6756;51.354;15.754;2023-02-05T18:52:18;-4.70;25.70
13375;DHT22;6756;51.354;15.754;2023-02-05T18:56:21;-4.80;1.00
13375;DHT22;6756;51.354;15.754;2023-02-05T19:00:22;-4.80;1.00
13375;DHT22;6756;51.354;15.754;2023-02-05T19:04:23;-4.90;99.90
13375;DHT22;6756;51.354;15.754;2023-02-05T19:08:26;-5.00;99.90
13375;DHT22;6756;51.354;15.754;2023-02-05T19:12:27;-5.00;99.90
13375;DHT22;6756;51.354;15.754;2023-02-05T19:16:31;-5.20;99.90
13375;DHT22;6756;51.354;15.754;2023-02-05T19:20:33;-5.20;1.00
13375;DHT22;6756;51.354;15.754;2023-02-05T19:24:34;-5.30;1.00
13375;DHT22;6756;51.354;15.754;2023-02-05T19:28:36;-5.30;1.00
13375;DHT22;6756;51.354;15.754;2023-02-05T19:32:37;-5.40;40.70
13375;DHT22;6756;51.354;15.754;2023-02-05T19:36:38;-5.40;99.90
13375;DHT22;6756;51.354;15.754;2023-02-05T19:40:39;-5.50;99.90
13375;DHT22;6756;51.354;15.754;2023-02-05T19:44:42;-5.60;99.90
13375;DHT22;6756;51.354;15.754;2023-02-05T19:48:44;-5.70;99.90
13375;DHT22;6756;51.354;15.754;2023-02-05T19:52:45;-5.70;99.90
13375;DHT22;6756;51.354;15.754;2023-02-05T19:56:46;-5.80;99.90
13375;DHT22;6756;51.354;15.754;2023-02-05T20:00:47;-5.90;44.30
13375;DHT22;6756;51.354;15.754;2023-02-05T20:04:48;-5.90;1.00
13375;DHT22;6756;51.354;15.754;2023-02-05T20:08:49;-6.00;1.00
13375;DHT22;6756;51.354;15.754;2023-02-05T20:12:50;-6.10;99.90
13375;DHT22;6756;51.354;15.754;2023-02-05T20:16:52;-6.20;99.90
13375;DHT22;6756;51.354;15.754;2023-02-05T20:20:54;-6.30;99.90
13375;DHT22;6756;51.354;15.754;2023-02-05T20:24:55;-6.40;99.90
13375;DHT22;6756;51.354;15.754;2023-02-05T20:28:56;-6.50;99.90
13375;DHT22;6756;51.354;15.754;2023-02-05T20:33:16;-6.60;99.90
13375;DHT22;6756;51.354;15.754;2023-02-05T20:37:17;-6.70;1.00
13375;DHT22;6756;51.354;15.754;2023-02-05T20:41:19;-6.70;1.00
13375;DHT22;6756;51.354;15.754;2023-02-05T20:45:20;-6.80;1.00
13375;DHT22;6756;51.354;15.754;2023-02-05T20:49:23;-6.90;99.90
13375;DHT22;6756;51.354;15.754;2023-02-05T20:53:24;-6.90;99.90
13375;DHT22;6756;51.354;15.754;2023-02-05T20:57:26;-7.00;1.00
13375;DHT22;6756;51.354;15.754;2023-02-05T21:01:29;-7.00;91.80
13375;DHT22;6756;51.354;15.754;2023-02-05T21:05:30;-7.10;99.90
13375;DHT22;6756;51.354;15.754;2023-02-05T21:09:31;-7.10;99.90
13375;DHT22;6756;51.354;15.754;2023-02-05T21:13:33;-7.10;99.90
13375;DHT22;6756;51.354;15.754;2023-02-05T21:17:34;-7.20;1.00
13375;DHT22;6756;51.354;15.754;2023-02-05T21:21:37;-7.20;1.00
13375;DHT22;6756;51.354;15.754;2023-02-05T21:25:38;-7.30;1.00
13375;DHT22;6756;51.354;15.754;2023-02-05T21:29:39;-7.40;1.00
13375;DHT22;6756;51.354;15.754;2023-02-05T21:33:40;-7.50;1.00
13375;DHT22;6756;51.354;15.754;2023-02-05T21:37:41;-7.50;1.00
13375;DHT22;6756;51.354;15.754;2023-02-05T21:41:42;-7.50;99.90
13375;DHT22;6756;51.354;15.754;2023-02-05T21:45:44;-7.60;99.90
13375;DHT22;6756;51.354;15.754;2023-02-05T21:49:46;-7.60;1.00
13375;DHT22;6756;51.354;15.754;2023-02-05T21:53:50;-7.70;1.00
13375;DHT22;6756;51.354;15.754;2023-02-05T21:57:51;-7.80;99.90
13375;DHT22;6756;51.354;15.754;2023-02-05T22:01:52;-7.80;99.90
13375;DHT22;6756;51.354;15.754;2023-02-05T22:05:55;-7.90;1.00
13375;DHT22;6756;51.354;15.754;2023-02-05T22:09:56;-7.90;1.00
13375;DHT22;6756;51.354;15.754;2023-02-05T22:13:57;-7.90;1.00
13375;DHT22;6756;51.354;15.754;2023-02-05T22:17:58;-8.00;1.00
13375;DHT22;6756;51.354;15.754;2023-02-05T22:21:58;-8.00;99.90
13375;DHT22;6756;51.354;15.754;2023-02-05T22:25:59;-8.00;1.00
13375;DHT22;6756;51.354;15.754;2023-02-05T22:30:01;-8.00;1.00
13375;DHT22;6756;51.354;15.754;2023-02-05T22:34:02;-8.00;1.00
13375;DHT22;6756;51.354;15.754;2023-02-05T22:38:03;-8.00;1.00
13375;DHT22;6756;51.354;15.754;2023-02-05T22:42:04;-8.00;1.00
13375;DHT22;6756;51.354;15.754;2023-02-05T22:46:07;-8.00;1.00
13375;DHT22;6756;51.354;15.754;2023-02-05T22:50:08;-8.00;82.10
13375;DHT22;6756;51.354;15.754;2023-02-05T22:54:11;-8.00;99.90
13375;DHT22;6756;51.354;15.754;2023-02-05T22:58:12;-7.90;99.90
13375;DHT22;6756;51.354;15.754;2023-02-05T23:02:13;-7.80;1.00
13375;DHT22;6756;51.354;15.754;2023-02-05T23:06:22;-7.80;1.00
13375;DHT22;6756;51.354;15.754;2023-02-05T23:10:23;-7.80;1.00
13375;DHT22;6756;51.354;15.754;2023-02-05T23:14:24;-7.90;1.00
13375;DHT22;6756;51.354;15.754;2023-02-05T23:18:25;-7.90;1.00
13375;DHT22;6756;51.354;15.754;2023-02-05T23:22:26;-7.90;1.00
13375;DHT22;6756;51.354;15.754;2023-02-05T23:26:37;-7.90;1.00
13375;DHT22;6756;51.354;15.754;2023-02-05T23:30:39;-7.80;1.00
13375;DHT22;6756;51.354;15.754;2023-02-05T23:34:43;-7.90;1.00
13375;DHT22;6756;51.354;15.754;2023-02-05T23:38:44;-7.90;1.00
13375;DHT22;6756;51.354;15.754;2023-02-05T23:42:46;-7.90;1.00
13375;DHT22;6756;51.354;15.754;2023-02-05T23:46:48;-8.00;1.00
13375;DHT22;6756;51.354;15.754;2023-02-05T23:50:50;-8.10;57.70
13375;DHT22;6756;51.354;15.754;2023-02-05T23:54:52;-8.10;93.80
13375;DHT22;6756;51.354;15.754;2023-02-05T23:58:52;-8.10;14.20
